createdAt,value
2022-07-25T00:00:31.543Z,1006.16
2022-07-25T00:01:31.583Z,1006.13
2022-07-25T00:02:31.517Z,1006.13
2022-07-25T00:03:31.524Z,1006.14
2022-07-25T00:04:31.535Z,1006.16
2022-07-25T00:05:37.389Z,1006.12
2022-07-25T00:06:32.474Z,1006.14
2022-07-25T00:07:31.471Z,1006.08
2022-07-25T00:08:31.476Z,1006.11
2022-07-25T00:09:31.449Z,1006.06
2022-07-25T00:10:31.437Z,1006.10
2022-07-25T00:11:31.420Z,1006.07
2022-07-25T00:12:31.407Z,1006.03
2022-07-25T00:13:31.430Z,1006.06
2022-07-25T00:14:31.387Z,1006.02
2022-07-25T00:15:31.385Z,1006.03
2022-07-25T00:16:31.455Z,1006.00
2022-07-25T00:17:31.361Z,1005.97
2022-07-25T00:18:31.346Z,1006.00
2022-07-25T00:19:31.349Z,1005.92
2022-07-25T00:20:31.327Z,1005.92
2022-07-25T00:21:31.319Z,1005.88
2022-07-25T00:22:31.302Z,1005.89
2022-07-25T00:23:31.289Z,1005.85
2022-07-25T00:24:31.295Z,1005.82
2022-07-25T00:25:31.277Z,1005.77
2022-07-25T00:26:32.039Z,1005.76
2022-07-25T00:27:31.252Z,1005.74
2022-07-25T00:28:31.240Z,1005.72
2022-07-25T00:29:31.230Z,1005.68
2022-07-25T00:30:31.223Z,1005.66
2022-07-25T00:31:31.253Z,1005.65
2022-07-25T00:32:31.189Z,1005.66
2022-07-25T00:33:31.188Z,1005.67
2022-07-25T00:34:31.171Z,1005.65
2022-07-25T00:35:31.180Z,1005.66
2022-07-25T00:36:31.150Z,1005.63
2022-07-25T00:37:31.142Z,1005.64
2022-07-25T00:38:31.122Z,1005.67
2022-07-25T00:39:31.120Z,1005.63
2022-07-25T00:40:31.116Z,1005.63
2022-07-25T00:41:31.099Z,1005.60
2022-07-25T00:42:31.087Z,1005.61
2022-07-25T00:43:31.077Z,1005.61
2022-07-25T00:44:31.058Z,1005.64
2022-07-25T00:45:31.055Z,1005.59
2022-07-25T00:46:31.091Z,1005.62
2022-07-25T00:47:31.034Z,1005.61
2022-07-25T00:48:31.080Z,1005.62
2022-07-25T00:49:31.011Z,1005.58
2022-07-25T00:50:31.000Z,1005.56
2022-07-25T00:51:31.006Z,1005.50
2022-07-25T00:52:30.971Z,1005.51
2022-07-25T00:53:30.959Z,1005.49
2022-07-25T00:54:30.947Z,1005.46
2022-07-25T00:55:30.947Z,1005.48
2022-07-25T00:56:30.953Z,1005.47
2022-07-25T00:57:30.916Z,1005.43
2022-07-25T00:58:30.914Z,1005.39
2022-07-25T00:59:30.896Z,1005.42
2022-07-25T01:00:30.895Z,1005.40
2022-07-25T01:01:30.934Z,1005.41
2022-07-25T01:02:30.972Z,1005.41
2022-07-25T01:03:30.855Z,1005.43
2022-07-25T01:04:30.845Z,1005.40
2022-07-25T01:05:30.826Z,1005.44
2022-07-25T01:06:30.814Z,1005.43
2022-07-25T01:07:30.825Z,1005.42
2022-07-25T01:08:30.801Z,1005.44
2022-07-25T01:09:30.790Z,1005.45
2022-07-25T01:10:30.777Z,1005.44
2022-07-25T01:11:30.768Z,1005.44
2022-07-25T01:12:30.770Z,1005.40
2022-07-25T01:13:30.751Z,1005.41
2022-07-25T01:14:30.727Z,1005.43
2022-07-25T01:15:30.800Z,1005.42
2022-07-25T01:16:30.713Z,1005.39
2022-07-25T01:17:30.734Z,1005.40
2022-07-25T01:18:30.689Z,1005.39
2022-07-25T01:19:30.678Z,1005.39
2022-07-25T01:20:30.668Z,1005.36
2022-07-25T01:21:30.650Z,1005.38
2022-07-25T01:22:30.646Z,1005.36
2022-07-25T01:23:30.650Z,1005.37
2022-07-25T01:24:30.619Z,1005.38
2022-07-25T01:25:30.605Z,1005.35
2022-07-25T01:26:30.594Z,1005.37
2022-07-25T01:27:30.591Z,1005.32
2022-07-25T01:28:30.597Z,1005.37
2022-07-25T01:29:30.561Z,1005.34
2022-07-25T01:30:30.561Z,1005.36
2022-07-25T01:31:30.596Z,1005.35
2022-07-25T01:32:30.527Z,1005.34
2022-07-25T01:33:30.547Z,1005.35
2022-07-25T01:34:30.512Z,1005.33
2022-07-25T01:35:30.492Z,1005.34
2022-07-25T01:36:30.497Z,1005.36
2022-07-25T01:37:30.479Z,1005.38
2022-07-25T01:38:30.496Z,1005.36
2022-07-25T01:39:30.457Z,1005.40
2022-07-25T01:40:30.443Z,1005.34
2022-07-25T01:41:30.428Z,1005.35
2022-07-25T01:42:30.427Z,1005.35
2022-07-25T01:43:30.415Z,1005.38
2022-07-25T01:44:30.422Z,1005.34
2022-07-25T01:45:30.390Z,1005.32
2022-07-25T01:46:30.466Z,1005.33
2022-07-25T01:47:30.368Z,1005.29
2022-07-25T01:48:30.417Z,1005.30
2022-07-25T01:49:30.351Z,1005.28
2022-07-25T01:50:30.335Z,1005.33
2022-07-25T01:51:30.326Z,1005.30
2022-07-25T01:52:30.315Z,1005.31
2022-07-25T01:53:30.301Z,1005.29
2022-07-25T01:54:30.317Z,1005.27
2022-07-25T01:55:30.273Z,1005.28
2022-07-25T01:56:31.999Z,1005.23
2022-07-25T01:57:31.093Z,1005.21
2022-07-25T01:58:30.239Z,1005.23
2022-07-25T01:59:30.249Z,1005.22
2022-07-25T02:00:30.232Z,1005.19
2022-07-25T02:01:30.236Z,1005.18
2022-07-25T02:02:30.203Z,1005.14
2022-07-25T02:03:30.189Z,1005.18
2022-07-25T02:04:30.250Z,1005.11
2022-07-25T02:05:30.179Z,1005.09
2022-07-25T02:06:30.162Z,1005.04
2022-07-25T02:07:30.144Z,1005.06
2022-07-25T02:08:30.130Z,1005.02
2022-07-25T02:09:30.126Z,1005.02
2022-07-25T02:10:30.140Z,1004.99
2022-07-25T02:11:30.102Z,1005.02
2022-07-25T02:12:30.095Z,1005.01
2022-07-25T02:13:30.077Z,1005.02
2022-07-25T02:14:30.073Z,1005.02
2022-07-25T02:15:30.063Z,1005.03
2022-07-25T02:16:30.103Z,1005.04
2022-07-25T02:17:30.150Z,1005.05
2022-07-25T02:18:30.032Z,1005.04
2022-07-25T02:19:30.014Z,1005.05
2022-07-25T02:20:30.005Z,1005.06
2022-07-25T02:21:30.000Z,1005.07
2022-07-25T02:22:29.981Z,1005.02
2022-07-25T02:23:29.968Z,1005.00
2022-07-25T02:24:29.959Z,1005.03
2022-07-25T02:25:29.940Z,1005.04
2022-07-25T02:26:29.954Z,1005.01
2022-07-25T02:27:29.923Z,1005.04
2022-07-25T02:28:29.918Z,1005.02
2022-07-25T02:29:29.894Z,1004.99
2022-07-25T02:30:29.928Z,1005.01
2022-07-25T02:31:29.875Z,1004.95
2022-07-25T02:32:29.878Z,1004.96
2022-07-25T02:33:29.857Z,1004.96
2022-07-25T02:34:29.847Z,1004.94
2022-07-25T02:35:29.843Z,1004.93
2022-07-25T02:36:29.816Z,1004.89
2022-07-25T02:37:29.818Z,1004.88
2022-07-25T02:38:29.800Z,1004.86
2022-07-25T02:39:29.788Z,1004.86
2022-07-25T02:40:29.782Z,1004.85
2022-07-25T02:41:29.766Z,1004.85
2022-07-25T02:42:29.777Z,1004.83
2022-07-25T02:43:29.743Z,1004.82
2022-07-25T02:44:29.733Z,1004.82
2022-07-25T02:45:29.715Z,1004.82
2022-07-25T02:46:29.795Z,1004.83
2022-07-25T02:47:29.691Z,1004.84
2022-07-25T02:48:29.771Z,1004.81
2022-07-25T02:49:29.677Z,1004.81
2022-07-25T02:50:29.666Z,1004.76
2022-07-25T02:51:29.657Z,1004.75
2022-07-25T02:52:29.644Z,1004.74
2022-07-25T02:53:54.904Z,1004.74
2022-07-25T02:54:30.621Z,1004.72
2022-07-25T02:55:29.610Z,1004.70
2022-07-25T02:56:30.170Z,1004.71
2022-07-25T02:57:29.584Z,1004.69
2022-07-25T02:58:29.583Z,1004.69
2022-07-25T02:59:32.411Z,1004.70
2022-07-25T03:00:29.551Z,1004.71
2022-07-25T03:01:29.612Z,1004.70
2022-07-25T03:02:29.528Z,1004.70
2022-07-25T03:03:29.510Z,1004.70
2022-07-25T03:04:29.650Z,1004.66
2022-07-25T03:05:29.499Z,1004.66
2022-07-25T03:06:29.479Z,1004.66
2022-07-25T03:07:29.464Z,1004.65
2022-07-25T03:08:29.463Z,1004.66
2022-07-25T03:09:29.463Z,1004.65
2022-07-25T03:10:29.443Z,1004.63
2022-07-25T03:11:29.428Z,1004.64
2022-07-25T03:12:29.415Z,1004.59
2022-07-25T03:13:29.398Z,1004.56
2022-07-25T03:14:29.404Z,1004.55
2022-07-25T03:15:29.385Z,1004.57
2022-07-25T03:16:29.434Z,1004.57
2022-07-25T03:17:29.357Z,1004.58
2022-07-25T03:18:29.346Z,1004.59
2022-07-25T03:19:29.352Z,1004.54
2022-07-25T03:20:29.327Z,1004.52
2022-07-25T03:21:29.316Z,1004.50
2022-07-25T03:22:29.299Z,1004.44
2022-07-25T03:23:29.292Z,1004.45
2022-07-25T03:24:29.298Z,1004.37
2022-07-25T03:25:29.263Z,1004.39
2022-07-25T03:26:29.262Z,1004.40
2022-07-25T03:27:29.252Z,1004.42
2022-07-25T03:28:29.234Z,1004.43
2022-07-25T03:29:29.218Z,1004.40
2022-07-25T03:30:29.227Z,1004.36
2022-07-25T03:31:29.267Z,1004.37
2022-07-25T03:32:29.201Z,1004.39
2022-07-25T03:33:29.182Z,1004.38
2022-07-25T03:34:29.164Z,1004.35
2022-07-25T03:35:29.167Z,1004.33
2022-07-25T03:36:29.140Z,1004.35
2022-07-25T03:37:29.128Z,1004.32
2022-07-25T03:38:29.116Z,1004.31
2022-07-25T03:39:29.125Z,1004.30
2022-07-25T03:40:29.113Z,1004.29
2022-07-25T03:41:29.090Z,1004.28
2022-07-25T03:42:32.246Z,1004.30
2022-07-25T03:43:30.067Z,1004.27
2022-07-25T03:44:29.050Z,1004.28
2022-07-25T03:45:29.116Z,1004.25
2022-07-25T03:46:29.148Z,1004.26
2022-07-25T03:47:29.025Z,1004.21
2022-07-25T03:48:29.053Z,1004.27
2022-07-25T03:49:29.006Z,1004.21
2022-07-25T03:50:28.999Z,1004.20
2022-07-25T03:51:28.994Z,1004.18
2022-07-25T03:52:28.970Z,1004.15
2022-07-25T03:53:28.950Z,1004.15
2022-07-25T03:54:28.947Z,1004.15
2022-07-25T03:55:28.946Z,1004.15
2022-07-25T03:56:28.957Z,1004.14
2022-07-25T03:57:28.904Z,1004.16
2022-07-25T03:58:28.912Z,1004.12
2022-07-25T03:59:28.888Z,1004.08
2022-07-25T04:00:28.881Z,1004.10
2022-07-25T04:01:28.966Z,1004.08
2022-07-25T04:02:28.961Z,1004.08
2022-07-25T04:03:28.844Z,1004.07
2022-07-25T04:04:28.826Z,1004.13
2022-07-25T04:05:28.821Z,1004.12
2022-07-25T04:06:28.828Z,1004.08
2022-07-25T04:07:28.795Z,1004.12
2022-07-25T04:08:28.781Z,1004.12
2022-07-25T04:09:33.464Z,1004.12
2022-07-25T04:10:28.767Z,1004.14
2022-07-25T04:11:28.750Z,1004.12
2022-07-25T04:12:28.749Z,1004.10
2022-07-25T04:13:28.732Z,1004.06
2022-07-25T04:14:28.720Z,1004.06
2022-07-25T04:15:28.701Z,1004.05
2022-07-25T04:16:28.715Z,1004.06
2022-07-25T04:17:28.695Z,1004.06
2022-07-25T04:18:29.005Z,1004.06
2022-07-25T04:19:28.974Z,1004.08
2022-07-25T04:20:28.656Z,1004.06
2022-07-25T04:21:28.646Z,1004.03
2022-07-25T04:22:28.641Z,1004.02
2022-07-25T04:23:28.620Z,1004.01
2022-07-25T04:24:28.603Z,1004.01
2022-07-25T04:25:28.597Z,1003.99
2022-07-25T04:26:28.594Z,1003.98
2022-07-25T04:27:28.596Z,1003.97
2022-07-25T04:28:28.559Z,1003.96
2022-07-25T04:29:28.556Z,1003.99
2022-07-25T04:30:28.536Z,1003.95
2022-07-25T04:31:28.561Z,1003.95
2022-07-25T04:32:28.530Z,1003.92
2022-07-25T04:33:28.503Z,1003.94
2022-07-25T04:34:28.498Z,1003.88
2022-07-25T04:35:28.484Z,1003.90
2022-07-25T04:36:28.468Z,1003.90
2022-07-25T04:37:28.482Z,1003.88
2022-07-25T04:38:28.450Z,1003.87
2022-07-25T04:39:28.445Z,1003.89
2022-07-25T04:40:28.424Z,1003.87
2022-07-25T04:41:28.417Z,1003.83
2022-07-25T04:42:28.429Z,1003.87
2022-07-25T04:43:28.409Z,1003.86
2022-07-25T04:44:28.380Z,1003.85
2022-07-25T04:45:28.414Z,1003.82
2022-07-25T04:46:28.369Z,1003.84
2022-07-25T04:47:28.342Z,1003.83
2022-07-25T04:48:28.389Z,1003.84
2022-07-25T04:49:28.325Z,1003.74
2022-07-25T04:50:28.315Z,1003.77
2022-07-25T04:51:28.308Z,1003.76
2022-07-25T04:52:28.288Z,1003.74
2022-07-25T04:53:28.303Z,1003.73
2022-07-25T04:54:28.272Z,1003.71
2022-07-25T04:55:28.262Z,1003.72
2022-07-25T04:56:28.252Z,1003.66
2022-07-25T04:57:28.238Z,1003.64
2022-07-25T04:58:28.245Z,1003.67
2022-07-25T04:59:28.215Z,1003.63
2022-07-25T05:00:28.205Z,1003.63
2022-07-25T05:01:28.280Z,1003.64
2022-07-25T05:02:28.247Z,1003.65
2022-07-25T05:03:28.185Z,1003.62
2022-07-25T05:04:28.162Z,1003.61
2022-07-25T05:05:28.143Z,1003.64
2022-07-25T05:06:28.151Z,1003.66
2022-07-25T05:07:28.118Z,1003.65
2022-07-25T05:08:28.132Z,1003.63
2022-07-25T05:09:28.105Z,1003.66
2022-07-25T05:10:28.086Z,1003.63
2022-07-25T05:11:28.082Z,1003.66
2022-07-25T05:12:28.072Z,1003.64
2022-07-25T05:13:28.078Z,1003.59
2022-07-25T05:14:28.048Z,1003.63
2022-07-25T05:15:28.030Z,1003.63
2022-07-25T05:16:28.092Z,1003.64
2022-07-25T05:17:28.007Z,1003.62
2022-07-25T05:18:28.014Z,1003.66
2022-07-25T05:19:27.987Z,1003.61
2022-07-25T05:20:27.980Z,1003.60
2022-07-25T05:21:27.972Z,1003.61
2022-07-25T05:22:29.085Z,1003.59
2022-07-25T05:23:27.961Z,1003.64
2022-07-25T05:24:27.937Z,1003.59
2022-07-25T05:25:27.926Z,1003.55
2022-07-25T05:26:27.905Z,1003.54
2022-07-25T05:27:27.894Z,1003.54
2022-07-25T05:28:27.905Z,1003.50
2022-07-25T05:29:27.882Z,1003.51
2022-07-25T05:30:27.864Z,1003.50
2022-07-25T05:31:27.914Z,1003.52
2022-07-25T05:32:27.842Z,1003.51
2022-07-25T05:33:27.861Z,1003.52
2022-07-25T05:34:27.819Z,1003.49
2022-07-25T05:35:27.804Z,1003.47
2022-07-25T05:36:27.798Z,1003.50
2022-07-25T05:37:27.799Z,1003.42
2022-07-25T05:38:27.789Z,1003.41
2022-07-25T05:39:27.781Z,1003.40
2022-07-25T05:40:27.757Z,1003.37
2022-07-25T05:41:27.749Z,1003.40
2022-07-25T05:42:27.734Z,1003.41
2022-07-25T05:43:27.719Z,1003.42
2022-07-25T05:44:27.716Z,1003.45
2022-07-25T05:45:27.711Z,1003.41
2022-07-25T05:46:27.748Z,1003.40
2022-07-25T05:47:27.674Z,1003.41
2022-07-25T05:48:27.725Z,1003.41
2022-07-25T05:49:27.669Z,1003.42
2022-07-25T05:50:27.657Z,1003.39
2022-07-25T05:51:27.841Z,1003.39
2022-07-25T05:52:27.616Z,1003.38
2022-07-25T05:53:27.615Z,1003.39
2022-07-25T05:54:27.642Z,1003.33
2022-07-25T05:55:27.597Z,1003.35
2022-07-25T05:56:27.573Z,1003.38
2022-07-25T05:57:27.598Z,1003.37
2022-07-25T05:58:29.928Z,1003.29
2022-07-25T05:59:27.546Z,1003.30
2022-07-25T06:00:27.548Z,1003.29
2022-07-25T06:01:27.559Z,1003.30
2022-07-25T06:02:27.679Z,1003.29
2022-07-25T06:03:27.598Z,1003.28
2022-07-25T06:04:27.567Z,1003.32
2022-07-25T06:05:27.660Z,1003.26
2022-07-25T06:06:27.458Z,1003.27
2022-07-25T06:07:27.450Z,1003.30
2022-07-25T06:08:27.443Z,1003.27
2022-07-25T06:09:27.436Z,1003.23
2022-07-25T06:10:27.490Z,1003.23
2022-07-25T06:11:27.440Z,1003.28
2022-07-25T06:12:27.394Z,1003.29
2022-07-25T06:13:27.383Z,1003.29
2022-07-25T06:14:27.372Z,1003.26
2022-07-25T06:15:27.651Z,1003.28
2022-07-25T06:16:27.458Z,1003.25
2022-07-25T06:17:32.259Z,1003.26
2022-07-25T06:18:28.328Z,1003.28
2022-07-25T06:19:27.330Z,1003.31
2022-07-25T06:20:27.389Z,1003.29
2022-07-25T06:21:27.302Z,1003.26
2022-07-25T06:22:27.310Z,1003.29
2022-07-25T06:23:27.695Z,1003.26
2022-07-25T06:24:27.260Z,1003.32
2022-07-25T06:25:27.248Z,1003.32
2022-07-25T06:26:27.243Z,1003.30
2022-07-25T06:27:29.356Z,1003.29
2022-07-25T06:28:27.223Z,1003.28
2022-07-25T06:29:27.222Z,1003.26
2022-07-25T06:30:27.198Z,1003.27
2022-07-25T06:31:27.248Z,1003.18
2022-07-25T06:32:27.179Z,1003.24
2022-07-25T06:33:27.179Z,1003.25
2022-07-25T06:34:28.896Z,1003.21
2022-07-25T06:35:27.144Z,1003.21
2022-07-25T06:36:32.162Z,1003.20
2022-07-25T06:37:28.116Z,1003.19
2022-07-25T06:38:27.134Z,1003.22
2022-07-25T06:39:27.122Z,1003.24
2022-07-25T06:40:27.091Z,1003.21
2022-07-25T06:41:27.073Z,1003.21
2022-07-25T06:42:27.065Z,1003.20
2022-07-25T06:43:27.058Z,1003.17
2022-07-25T06:44:27.049Z,1003.17
2022-07-25T06:45:27.036Z,1003.13
2022-07-25T06:46:27.046Z,1003.17
2022-07-25T06:47:29.813Z,1003.17
2022-07-25T06:48:28.028Z,1003.11
2022-07-25T06:49:26.999Z,1003.16
2022-07-25T06:50:26.981Z,1003.12
2022-07-25T06:51:26.962Z,1003.11
2022-07-25T06:52:26.957Z,1003.11
2022-07-25T06:53:26.945Z,1003.14
2022-07-25T06:54:26.964Z,1003.20
2022-07-25T06:55:26.918Z,1003.17
2022-07-25T06:56:26.912Z,1003.27
2022-07-25T06:57:26.897Z,1003.25
2022-07-25T06:58:26.890Z,1003.19
2022-07-25T06:59:26.900Z,1003.12
2022-07-25T07:00:26.970Z,1003.15
2022-07-25T07:01:27.017Z,1003.16
2022-07-25T07:02:26.844Z,1003.19
2022-07-25T07:03:26.969Z,1003.15
2022-07-25T07:04:26.822Z,1003.13
2022-07-25T07:05:26.820Z,1003.14
2022-07-25T07:06:26.801Z,1003.13
2022-07-25T07:07:26.791Z,1003.09
2022-07-25T07:08:26.782Z,1003.11
2022-07-25T07:09:26.772Z,1003.09
2022-07-25T07:10:26.775Z,1003.07
2022-07-25T07:11:26.742Z,1003.05
2022-07-25T07:12:26.732Z,1003.07
2022-07-25T07:13:26.731Z,1003.03
2022-07-25T07:14:26.713Z,1002.97
2022-07-25T07:15:26.699Z,1002.96
2022-07-25T07:16:26.823Z,1002.93
2022-07-25T07:17:26.680Z,1002.88
2022-07-25T07:18:26.665Z,1002.90
2022-07-25T07:19:26.659Z,1002.92
2022-07-25T07:20:26.651Z,1002.94
2022-07-25T07:21:26.661Z,1002.98
2022-07-25T07:22:26.621Z,1002.99
2022-07-25T07:23:26.611Z,1002.98
2022-07-25T07:24:26.607Z,1002.98
2022-07-25T07:25:28.573Z,1003.00
2022-07-25T07:26:26.619Z,1002.96
2022-07-25T07:27:26.567Z,1002.95
2022-07-25T07:28:26.554Z,1002.98
2022-07-25T07:29:26.556Z,1002.94
2022-07-25T07:30:44.173Z,1002.98
2022-07-25T07:31:27.680Z,1002.99
2022-07-25T07:32:26.518Z,1002.96
2022-07-25T07:33:26.511Z,1002.96
2022-07-25T07:34:26.488Z,1002.95
2022-07-25T07:35:27.458Z,1002.97
2022-07-25T07:36:26.468Z,1002.98
2022-07-25T07:37:27.872Z,1002.95
2022-07-25T07:38:26.444Z,1002.97
2022-07-25T07:39:26.448Z,1002.95
2022-07-25T07:40:26.424Z,1002.92
2022-07-25T07:41:26.421Z,1002.87
2022-07-25T07:42:26.402Z,1002.87
2022-07-25T07:43:29.858Z,1002.92
2022-07-25T07:44:26.388Z,1002.89
2022-07-25T07:45:26.372Z,1002.86
2022-07-25T07:46:26.429Z,1002.84
2022-07-25T07:47:26.349Z,1002.78
2022-07-25T07:48:26.360Z,1002.80
2022-07-25T07:49:26.404Z,1002.80
2022-07-25T07:50:26.320Z,1002.81
2022-07-25T07:51:26.305Z,1002.81
2022-07-25T07:52:26.302Z,1002.86
2022-07-25T07:53:26.309Z,1002.89
2022-07-25T07:54:26.271Z,1002.87
2022-07-25T07:55:26.269Z,1002.88
2022-07-25T07:56:26.258Z,1002.83
2022-07-25T07:57:26.249Z,1002.83
2022-07-25T07:58:26.242Z,1002.74
2022-07-25T07:59:26.229Z,1002.75
2022-07-25T08:00:26.214Z,1002.76
2022-07-25T08:01:26.228Z,1002.72
2022-07-25T08:02:26.250Z,1002.74
2022-07-25T08:03:26.232Z,1002.74
2022-07-25T08:04:26.274Z,1002.70
2022-07-25T08:05:26.157Z,1002.72
2022-07-25T08:06:26.145Z,1002.72
2022-07-25T08:07:26.140Z,1002.74
2022-07-25T08:08:30.953Z,1002.79
2022-07-25T08:09:27.117Z,1002.79
2022-07-25T08:10:26.110Z,1002.80
2022-07-25T08:11:26.096Z,1002.79
2022-07-25T08:12:26.084Z,1002.77
2022-07-25T08:13:26.090Z,1002.77
2022-07-25T08:14:26.062Z,1002.74
2022-07-25T08:15:26.051Z,1002.71
2022-07-25T08:16:26.142Z,1002.65
2022-07-25T08:17:28.595Z,1002.70
2022-07-25T08:18:26.034Z,1002.65
2022-07-25T08:19:26.002Z,1002.61
2022-07-25T08:20:38.107Z,1002.68
2022-07-25T08:21:27.177Z,1002.71
2022-07-25T08:22:25.978Z,1002.70
2022-07-25T08:23:25.987Z,1002.71
2022-07-25T08:24:25.947Z,1002.79
2022-07-25T08:25:25.943Z,1002.80
2022-07-25T08:26:25.932Z,1002.80
2022-07-25T08:27:25.923Z,1002.78
2022-07-25T08:28:25.905Z,1002.84
2022-07-25T08:29:28.237Z,1002.79
2022-07-25T08:30:25.889Z,1002.86
2022-07-25T08:31:25.940Z,1002.87
2022-07-25T08:32:25.927Z,1002.86
2022-07-25T08:33:25.851Z,1002.84
2022-07-25T08:34:25.856Z,1002.83
2022-07-25T08:35:25.838Z,1002.84
2022-07-25T08:36:25.823Z,1002.88
2022-07-25T08:37:25.816Z,1002.85
2022-07-25T08:38:25.803Z,1002.90
2022-07-25T08:39:25.821Z,1002.89
2022-07-25T08:40:25.772Z,1002.83
2022-07-25T08:41:25.774Z,1002.81
2022-07-25T08:42:25.764Z,1002.76
2022-07-25T08:43:25.753Z,1002.82
2022-07-25T08:44:25.738Z,1002.80
2022-07-25T08:45:25.734Z,1002.78
2022-07-25T08:46:25.812Z,1002.73
2022-07-25T08:47:25.698Z,1002.67
2022-07-25T08:48:25.887Z,1002.70
2022-07-25T08:49:25.683Z,1002.71
2022-07-25T08:50:25.703Z,1002.67
2022-07-25T08:51:25.665Z,1002.66
2022-07-25T08:52:25.643Z,1002.67
2022-07-25T08:53:34.283Z,1002.75
2022-07-25T08:54:26.630Z,1002.82
2022-07-25T08:55:25.631Z,1002.88
2022-07-25T08:56:25.598Z,1002.90
2022-07-25T08:57:25.594Z,1002.99
2022-07-25T08:58:25.585Z,1003.01
2022-07-25T08:59:25.574Z,1003.01
2022-07-25T09:00:25.576Z,1003.01
2022-07-25T09:01:25.582Z,1003.03
2022-07-25T09:02:25.717Z,1003.01
2022-07-25T09:03:25.591Z,1002.98
2022-07-25T09:04:25.520Z,1002.97
2022-07-25T09:05:25.501Z,1002.98
2022-07-25T09:06:25.506Z,1003.00
2022-07-25T09:07:25.490Z,1003.07
2022-07-25T09:09:56.280Z,1003.03
2022-07-25T09:10:35.277Z,1002.96
2022-07-25T09:12:50.442Z,1003.09
2022-07-25T09:13:45.053Z,1003.10
2022-07-25T09:14:45.039Z,1003.17
2022-07-25T09:15:45.126Z,1003.23
2022-07-25T09:16:45.287Z,1003.07
2022-07-25T09:17:45.013Z,1003.14
2022-07-25T09:18:45.003Z,1003.07
2022-07-25T09:19:45.017Z,1003.03
2022-07-25T09:20:44.992Z,1002.97
2022-07-25T09:21:45.681Z,1003.14
2022-07-25T09:22:44.973Z,1003.00
2022-07-25T09:23:44.959Z,1003.03
2022-07-25T09:24:44.965Z,1002.99
2022-07-25T09:25:44.927Z,1002.99
2022-07-25T09:26:44.939Z,1003.06
2022-07-25T09:27:44.916Z,1003.08
2022-07-25T09:28:44.905Z,1003.08
2022-07-25T09:29:44.911Z,1003.04
2022-07-25T09:30:44.925Z,1003.04
2022-07-25T09:31:44.932Z,1003.27
2022-07-25T09:32:44.901Z,1003.33
2022-07-25T09:33:44.898Z,1003.29
2022-07-25T09:34:44.857Z,1003.35
2022-07-25T09:35:44.833Z,1003.44
2022-07-25T09:36:44.852Z,1003.45
2022-07-25T09:37:44.809Z,1003.44
2022-07-25T09:38:44.799Z,1003.41
2022-07-25T09:39:46.956Z,1003.17
2022-07-25T09:40:44.775Z,1003.18
2022-07-25T09:41:44.783Z,1003.25
2022-07-25T09:42:44.756Z,1003.31
2022-07-25T09:47:14.148Z,1003.30
2022-07-25T09:48:14.147Z,1003.36
2022-07-25T09:49:14.193Z,1003.31
2022-07-25T09:50:14.108Z,1003.29
2022-07-25T09:51:14.106Z,1003.27
2022-07-25T09:52:14.100Z,1003.30
2022-07-25T09:53:14.100Z,1003.29
2022-07-25T09:54:14.074Z,1003.26
2022-07-25T09:55:14.072Z,1003.28
2022-07-25T09:56:14.058Z,1003.37
2022-07-25T09:57:14.042Z,1003.38
2022-07-25T09:58:14.047Z,1003.43
2022-07-25T09:59:14.032Z,1003.48
2022-07-25T10:00:19.214Z,1003.47
2022-07-25T10:01:15.058Z,1003.49
2022-07-25T10:02:14.009Z,1003.49
2022-07-25T10:03:13.995Z,1003.50
2022-07-25T10:04:13.971Z,1003.49
2022-07-25T10:05:13.960Z,1003.49
2022-07-25T10:06:13.947Z,1003.53
2022-07-25T10:07:13.944Z,1003.54
2022-07-25T10:08:13.948Z,1003.60
2022-07-25T10:09:13.923Z,1003.68
2022-07-25T10:10:13.906Z,1003.71
2022-07-25T10:11:13.902Z,1003.73
2022-07-25T10:12:13.890Z,1003.71
2022-07-25T10:13:13.890Z,1003.62
2022-07-25T10:14:13.874Z,1003.69
2022-07-25T10:15:13.857Z,1003.61
2022-07-25T10:16:13.847Z,1003.55
2022-07-25T10:17:13.855Z,1003.57
2022-07-25T10:18:13.852Z,1003.57
2022-07-25T10:19:13.819Z,1003.62
2022-07-25T10:20:13.808Z,1003.69
2022-07-25T10:24:43.873Z,1003.77
2022-07-25T10:25:47.248Z,1003.77
2022-07-25T10:26:44.174Z,1003.65
2022-07-25T10:27:43.187Z,1003.53
2022-07-25T10:28:43.177Z,1003.42
2022-07-25T10:29:43.141Z,1003.33
2022-07-25T10:30:43.260Z,1003.31
2022-07-25T10:31:49.289Z,1003.29
2022-07-25T10:32:44.112Z,1003.28
2022-07-25T10:33:43.115Z,1003.28
2022-07-25T10:34:43.092Z,1003.22
2022-07-25T10:35:43.084Z,1003.22
2022-07-25T10:36:43.073Z,1003.18
2022-07-25T10:37:48.683Z,1003.18
2022-07-25T10:38:44.071Z,1003.13
2022-07-25T10:39:43.043Z,1003.13
2022-07-25T10:40:43.025Z,1003.16
2022-07-25T10:41:43.021Z,1003.54
2022-07-25T10:42:43.007Z,1003.41
2022-07-25T10:43:48.177Z,1003.28
2022-07-25T10:44:43.983Z,1003.24
2022-07-25T10:45:43.073Z,1003.29
2022-07-25T10:46:43.101Z,1003.33
2022-07-25T10:47:42.967Z,1003.34
2022-07-25T10:48:42.980Z,1003.45
2022-07-25T10:50:00.049Z,1003.56
2022-07-25T10:50:55.432Z,1003.57
2022-07-25T10:51:43.908Z,1003.58
2022-07-25T10:52:42.905Z,1003.63
2022-07-25T10:53:42.911Z,1003.55
2022-07-25T10:54:42.885Z,1003.62
2022-07-25T10:55:42.864Z,1003.64
2022-07-25T10:56:42.861Z,1003.70
2022-07-25T10:58:07.910Z,1003.82
2022-07-25T10:58:43.883Z,1003.86
2022-07-25T10:59:42.828Z,1003.78
2022-07-25T11:00:42.812Z,1003.80
2022-07-25T11:01:42.914Z,1003.87
2022-07-25T11:02:42.831Z,1003.83
2022-07-25T11:03:42.779Z,1003.79
2022-07-25T11:04:42.792Z,1003.81
2022-07-25T11:05:42.771Z,1003.69
2022-07-25T11:06:42.749Z,1003.73
2022-07-25T11:07:58.590Z,1003.96
2022-07-25T11:08:43.761Z,1003.95
2022-07-25T11:09:42.716Z,1003.91
2022-07-25T11:10:42.711Z,1003.69
2022-07-25T11:11:42.704Z,1003.78
2022-07-25T11:12:42.685Z,1003.75
2022-07-25T11:13:42.680Z,1003.65
2022-07-25T11:14:42.740Z,1003.56
2022-07-25T11:15:42.661Z,1003.57
2022-07-25T11:16:42.718Z,1003.58
2022-07-25T11:17:42.630Z,1003.62
2022-07-25T11:18:42.622Z,1003.66
2022-07-25T11:19:42.622Z,1003.63
2022-07-25T11:20:42.613Z,1003.66
2022-07-25T11:21:42.596Z,1003.67
2022-07-25T11:22:42.579Z,1003.70
2022-07-25T11:23:42.572Z,1003.62
2022-07-25T11:24:42.576Z,1003.65
2022-07-25T11:25:42.550Z,1003.64
2022-07-25T11:26:42.536Z,1003.61
2022-07-25T11:27:42.535Z,1003.55
2022-07-25T11:28:42.533Z,1003.59
2022-07-25T11:29:42.536Z,1003.55
2022-07-25T11:30:42.497Z,1003.58
2022-07-25T11:31:42.535Z,1003.52
2022-07-25T11:32:42.491Z,1003.51
2022-07-25T11:33:42.469Z,1003.52
2022-07-25T11:34:42.475Z,1003.51
2022-07-25T11:35:42.452Z,1003.50
2022-07-25T11:36:42.431Z,1003.47
2022-07-25T11:37:42.421Z,1003.50
2022-07-25T11:38:42.411Z,1003.58
2022-07-25T11:39:42.405Z,1003.54
2022-07-25T11:40:42.409Z,1003.57
2022-07-25T11:41:42.376Z,1003.53
2022-07-25T11:42:42.378Z,1003.53
2022-07-25T11:43:42.364Z,1003.58
2022-07-25T11:44:47.464Z,1003.57
2022-07-25T11:45:43.376Z,1003.60
2022-07-25T11:46:42.336Z,1003.58
2022-07-25T11:47:42.321Z,1003.58
2022-07-25T11:48:42.347Z,1003.65
2022-07-25T11:49:42.301Z,1003.68
2022-07-25T11:50:42.296Z,1003.73
2022-07-25T11:51:42.272Z,1003.71
2022-07-25T11:52:42.262Z,1003.70
2022-07-25T11:53:42.257Z,1003.72
2022-07-25T11:54:42.244Z,1003.73
2022-07-25T11:55:42.263Z,1003.77
2022-07-25T11:56:43.498Z,1003.74
2022-07-25T11:57:42.218Z,1003.79
2022-07-25T11:58:42.201Z,1003.81
2022-07-25T11:59:42.186Z,1003.86
2022-07-25T12:00:42.215Z,1003.85
2022-07-25T12:01:42.178Z,1003.83
2022-07-25T12:02:42.290Z,1003.82
2022-07-25T12:03:42.332Z,1003.81
2022-07-25T12:04:42.145Z,1003.79
2022-07-25T12:05:42.152Z,1003.81
2022-07-25T12:06:42.122Z,1003.78
2022-07-25T12:07:42.102Z,1003.82
2022-07-25T12:08:42.099Z,1003.79
2022-07-25T12:09:42.088Z,1003.81
2022-07-25T12:10:42.086Z,1003.77
2022-07-25T12:11:42.078Z,1003.82
2022-07-25T12:12:42.050Z,1003.85
2022-07-25T12:13:42.043Z,1003.83
2022-07-25T12:14:42.041Z,1003.79